createdAt,value
2023-02-14T06:11:06.931Z,2.70
2023-02-14T06:13:34.977Z,2.70
2023-02-14T06:16:04.512Z,2.80
2023-02-14T06:18:32.264Z,2.80
2023-02-14T06:21:03.445Z,2.80
2023-02-14T06:23:31.214Z,2.80
2023-02-14T06:25:59.015Z,2.80
2023-02-14T06:28:28.176Z,2.90
2023-02-14T06:30:56.089Z,2.90
2023-02-14T06:33:56.943Z,2.80
2023-02-14T06:36:25.166Z,2.90
2023-02-14T06:38:52.907Z,2.80
2023-02-14T06:41:20.862Z,2.80
2023-02-14T06:43:50.030Z,2.90
2023-02-14T12:29:26.348Z,9.00
2023-02-14T12:31:57.891Z,9.20
2023-02-14T12:34:25.913Z,9.10
2023-02-14T12:37:15.055Z,9.20
2023-02-14T12:40:03.237Z,9.20
2023-02-14T12:42:47.243Z,9.30
2023-02-14T12:57:30.503Z,9.40
2023-02-14T13:00:07.128Z,9.50
2023-02-14T14:31:38.755Z,10.40
2023-02-14T14:34:08.201Z,10.60
2023-02-14T14:36:35.987Z,10.50
2023-02-14T14:39:05.398Z,10.40
2023-02-14T14:41:33.767Z,10.50
2023-02-14T14:44:01.987Z,10.50
2023-02-14T14:46:30.100Z,10.50
2023-02-14T14:48:58.557Z,10.50
2023-02-14T14:51:30.706Z,10.40
2023-02-14T14:54:01.374Z,10.40
2023-02-14T14:56:32.689Z,10.30
2023-02-14T14:59:18.081Z,10.30
2023-02-14T15:01:46.951Z,10.40
2023-02-14T15:04:18.965Z,10.40
2023-02-14T15:06:49.800Z,11.10
2023-02-14T15:09:23.813Z,11.90
2023-02-14T15:12:11.497Z,12.60
2023-02-14T15:14:43.076Z,13.00
2023-02-14T15:17:17.141Z,13.40
2023-02-14T15:19:48.448Z,13.30
2023-02-14T15:22:22.516Z,13.30
2023-02-14T15:24:51.884Z,13.50
2023-02-14T15:27:22.204Z,13.40
2023-02-14T15:29:58.291Z,13.40
2023-02-14T15:32:27.319Z,13.30
2023-02-14T15:34:59.445Z,13.10
2023-02-14T15:37:28.867Z,12.80
2023-02-14T15:39:57.692Z,12.10
2023-02-14T15:42:29.315Z,11.30
2023-02-14T15:45:23.711Z,10.70
2023-02-14T15:47:53.994Z,10.20
2023-02-14T15:50:26.011Z,9.70
2023-02-14T15:52:57.623Z,9.40
2023-02-14T15:55:28.838Z,9.10
2023-02-14T15:57:58.817Z,8.90
2023-02-14T16:00:27.705Z,8.60
2023-02-14T16:02:59.860Z,8.30
2023-02-14T16:05:28.401Z,8.10
2023-02-14T16:07:59.615Z,7.90
2023-02-14T16:10:28.699Z,7.70
2023-02-14T16:13:01.141Z,7.50
2023-02-14T16:38:43.822Z,6.10
2023-02-14T16:41:18.284Z,6.00
2023-02-14T16:43:46.912Z,5.90
2023-02-14T16:46:19.867Z,5.80
2023-02-14T16:48:52.173Z,5.80
2023-02-14T16:51:22.406Z,5.70
2023-02-14T16:53:52.201Z,5.60
2023-02-14T16:56:23.381Z,5.60
2023-02-14T16:58:51.264Z,5.50
2023-02-14T17:01:19.113Z,5.30
2023-02-14T17:03:46.935Z,5.20
2023-02-14T17:06:17.957Z,5.10
2023-02-14T17:08:49.654Z,5.20
2023-02-14T17:11:19.669Z,5.10
2023-02-14T17:13:48.750Z,5.10
2023-02-14T17:16:18.330Z,5.00
2023-02-14T17:18:49.335Z,5.00
2023-02-14T17:21:20.766Z,4.90
2023-02-14T17:23:48.652Z,4.80
2023-02-14T17:26:19.901Z,4.70
2023-02-14T17:28:47.828Z,4.70
2023-02-14T17:31:15.728Z,4.50
2023-02-14T17:33:43.560Z,4.50
2023-02-14T17:36:13.221Z,4.40
2023-02-14T17:38:43.410Z,4.40
2023-02-14T17:41:16.401Z,4.40
2023-02-14T17:43:46.312Z,4.40
2023-02-14T17:46:15.900Z,4.40
